sensor_id;sensor_type;location;lat;lon;timestamp;P1;durP1;ratioP1;P2;durP2;ratioP2
27127;SDS011;14660;49.008;8.390;2022-11-30T00:03:36;29.33;;;16.33;;
27127;SDS011;14660;49.008;8.390;2022-11-30T00:06:05;29.02;;;16.90;;
27127;SDS011;14660;49.008;8.390;2022-11-30T00:08:35;32.10;;;15.95;;
27127;SDS011;14660;49.008;8.390;2022-11-30T00:11:11;27.65;;;17.13;;
27127;SDS011;14660;49.008;8.390;2022-11-30T00:13:38;31.35;;;16.90;;
27127;SDS011;14660;49.008;8.390;2022-11-30T00:16:04;31.05;;;16.60;;
27127;SDS011;14660;49.008;8.390;2022-11-30T00:18:30;30.35;;;18.30;;
27127;SDS011;14660;49.008;8.390;2022-11-30T00:20:59;31.83;;;16.15;;
27127;SDS011;14660;49.008;8.390;2022-11-30T00:23:30;32.97;;;14.45;;
27127;SDS011;14660;49.008;8.390;2022-11-30T00:26:00;27.83;;;16.45;;
27127;SDS011;14660;49.008;8.390;2022-11-30T00:28:30;28.48;;;16.50;;
27127;SDS011;14660;49.008;8.390;2022-11-30T00:31:06;30.27;;;15.38;;
27127;SDS011;14660;49.008;8.390;2022-11-30T00:33:35;27.08;;;14.13;;
27127;SDS011;14660;49.008;8.390;2022-11-30T00:36:06;28.50;;;16.67;;
27127;SDS011;14660;49.008;8.390;2022-11-30T00:38:40;32.40;;;17.17;;
27127;SDS011;14660;49.008;8.390;2022-11-30T00:41:06;28.95;;;15.13;;
27127;SDS011;14660;49.008;8.390;2022-11-30T00:43:32;32.35;;;16.40;;
27127;SDS011;14660;49.008;8.390;2022-11-30T00:45:58;25.75;;;16.33;;
27127;SDS011;14660;49.008;8.390;2022-11-30T00:48:24;31.67;;;15.48;;
27127;SDS011;14660;49.008;8.390;2022-11-30T00:50:50;28.50;;;15.63;;
27127;SDS011;14660;49.008;8.390;2022-11-30T00:53:16;30.05;;;15.23;;
27127;SDS011;14660;49.008;8.390;2022-11-30T00:55:43;29.50;;;14.82;;
27127;SDS011;14660;49.008;8.390;2022-11-30T00:58:09;27.35;;;15.05;;
27127;SDS011;14660;49.008;8.390;2022-11-30T01:00:35;27.88;;;15.35;;
27127;SDS011;14660;49.008;8.390;2022-11-30T01:03:01;31.23;;;15.57;;
27127;SDS011;14660;49.008;8.390;2022-11-30T01:05:27;32.53;;;15.93;;
27127;SDS011;14660;49.008;8.390;2022-11-30T01:07:53;36.55;;;16.65;;
27127;SDS011;14660;49.008;8.390;2022-11-30T01:10:19;33.95;;;16.67;;
27127;SDS011;14660;49.008;8.390;2022-11-30T01:12:46;33.22;;;17.05;;
27127;SDS011;14660;49.008;8.390;2022-11-30T01:15:12;30.05;;;17.35;;
27127;SDS011;14660;49.008;8.390;2022-11-30T01:17:38;29.70;;;15.50;;
27127;SDS011;14660;49.008;8.390;2022-11-30T01:20:04;31.30;;;17.63;;
27127;SDS011;14660;49.008;8.390;2022-11-30T01:22:31;32.10;;;18.02;;
27127;SDS011;14660;49.008;8.390;2022-11-30T01:24:57;33.50;;;17.42;;
27127;SDS011;14660;49.008;8.390;2022-11-30T01:27:23;30.92;;;15.85;;
27127;SDS011;14660;49.008;8.390;2022-11-30T01:29:49;31.23;;;17.08;;
27127;SDS011;14660;49.008;8.390;2022-11-30T01:32:14;33.20;;;16.77;;
27127;SDS011;14660;49.008;8.390;2022-11-30T01:34:40;35.28;;;16.75;;
27127;SDS011;14660;49.008;8.390;2022-11-30T01:37:05;43.08;;;18.23;;
27127;SDS011;14660;49.008;8.390;2022-11-30T01:39:31;36.50;;;18.15;;
27127;SDS011;14660;49.008;8.390;2022-11-30T01:41:56;42.05;;;17.63;;
27127;SDS011;14660;49.008;8.390;2022-11-30T01:49:25;40.72;;;19.00;;
27127;SDS011;14660;49.008;8.390;2022-11-30T01:54:35;39.58;;;16.70;;
27127;SDS011;14660;49.008;8.390;2022-11-30T01:57:12;38.88;;;18.90;;
27127;SDS011;14660;49.008;8.390;2022-11-30T01:59:49;35.17;;;16.92;;
27127;SDS011;14660;49.008;8.390;2022-11-30T02:02:25;45.10;;;18.85;;
27127;SDS011;14660;49.008;8.390;2022-11-30T02:04:58;42.03;;;18.25;;
27127;SDS011;14660;49.008;8.390;2022-11-30T02:07:24;49.42;;;19.20;;
27127;SDS011;14660;49.008;8.390;2022-11-30T02:09:50;41.90;;;17.95;;
27127;SDS011;14660;49.008;8.390;2022-11-30T02:12:22;44.47;;;17.58;;
27127;SDS011;14660;49.008;8.390;2022-11-30T02:15:14;48.00;;;20.40;;
27127;SDS011;14660;49.008;8.390;2022-11-30T02:23:41;44.90;;;19.17;;
27127;SDS011;14660;49.008;8.390;2022-11-30T02:29:15;48.30;;;18.90;;
27127;SDS011;14660;49.008;8.390;2022-11-30T02:32:35;50.05;;;18.70;;
27127;SDS011;14660;49.008;8.390;2022-11-30T02:34:47;44.80;;;19.10;;
27127;SDS011;14660;49.008;8.390;2022-11-30T02:37:14;43.88;;;20.77;;
27127;SDS011;14660;49.008;8.390;2022-11-30T02:39:41;42.13;;;18.63;;
27127;SDS011;14660;49.008;8.390;2022-11-30T02:42:11;46.58;;;18.98;;
27127;SDS011;14660;49.008;8.390;2022-11-30T02:44:38;40.80;;;17.63;;
27127;SDS011;14660;49.008;8.390;2022-11-30T02:52:13;38.15;;;19.23;;
27127;SDS011;14660;49.008;8.390;2022-11-30T02:54:40;43.90;;;19.27;;
27127;SDS011;14660;49.008;8.390;2022-11-30T02:57:05;45.22;;;18.50;;
27127;SDS011;14660;49.008;8.390;2022-11-30T02:59:32;40.70;;;18.55;;
27127;SDS011;14660;49.008;8.390;2022-11-30T03:01:57;40.63;;;18.42;;
27127;SDS011;14660;49.008;8.390;2022-11-30T03:04:23;38.40;;;18.52;;
27127;SDS011;14660;49.008;8.390;2022-11-30T03:06:48;45.72;;;19.90;;
27127;SDS011;14660;49.008;8.390;2022-11-30T03:09:14;41.35;;;18.65;;
27127;SDS011;14660;49.008;8.390;2022-11-30T03:11:39;43.50;;;17.75;;
27127;SDS011;14660;49.008;8.390;2022-11-30T03:14:05;32.63;;;18.33;;
27127;SDS011;14660;49.008;8.390;2022-11-30T03:16:31;42.22;;;17.58;;
27127;SDS011;14660;49.008;8.390;2022-11-30T03:18:57;44.33;;;18.75;;
27127;SDS011;14660;49.008;8.390;2022-11-30T03:21:23;40.97;;;18.92;;
27127;SDS011;14660;49.008;8.390;2022-11-30T03:23:49;45.50;;;19.58;;
27127;SDS011;14660;49.008;8.390;2022-11-30T03:26:15;40.97;;;18.00;;
27127;SDS011;14660;49.008;8.390;2022-11-30T03:28:41;40.63;;;17.75;;
27127;SDS011;14660;49.008;8.390;2022-11-30T03:31:09;37.30;;;17.25;;
27127;SDS011;14660;49.008;8.390;2022-11-30T03:33:36;38.08;;;17.27;;
27127;SDS011;14660;49.008;8.390;2022-11-30T03:36:02;38.42;;;19.52;;
27127;SDS011;14660;49.008;8.390;2022-11-30T03:38:30;38.85;;;19.60;;
27127;SDS011;14660;49.008;8.390;2022-11-30T03:41:00;33.40;;;17.92;;
27127;SDS011;14660;49.008;8.390;2022-11-30T03:43:27;35.33;;;17.02;;
27127;SDS011;14660;49.008;8.390;2022-11-30T03:45:52;35.03;;;17.20;;
27127;SDS011;14660;49.008;8.390;2022-11-30T03:48:18;42.25;;;18.48;;
27127;SDS011;14660;49.008;8.390;2022-11-30T03:50:44;36.03;;;16.98;;
27127;SDS011;14660;49.008;8.390;2022-11-30T03:53:13;42.42;;;19.92;;
27127;SDS011;14660;49.008;8.390;2022-11-30T03:55:42;37.33;;;16.80;;
27127;SDS011;14660;49.008;8.390;2022-11-30T03:58:08;40.80;;;17.70;;
27127;SDS011;14660;49.008;8.390;2022-11-30T04:00:34;46.85;;;19.45;;
27127;SDS011;14660;49.008;8.390;2022-11-30T04:03:00;34.33;;;16.13;;
27127;SDS011;14660;49.008;8.390;2022-11-30T04:05:26;33.78;;;16.83;;
27127;SDS011;14660;49.008;8.390;2022-11-30T04:07:52;35.20;;;16.50;;
27127;SDS011;14660;49.008;8.390;2022-11-30T04:10:18;36.20;;;17.40;;
27127;SDS011;14660;49.008;8.390;2022-11-30T04:12:44;36.90;;;16.40;;
27127;SDS011;14660;49.008;8.390;2022-11-30T04:15:09;33.58;;;17.50;;
27127;SDS011;14660;49.008;8.390;2022-11-30T04:17:35;31.02;;;17.70;;
27127;SDS011;14660;49.008;8.390;2022-11-30T04:20:01;45.35;;;19.00;;
27127;SDS011;14660;49.008;8.390;2022-11-30T04:22:29;35.60;;;15.75;;
27127;SDS011;14660;49.008;8.390;2022-11-30T04:24:55;33.97;;;16.00;;
27127;SDS011;14660;49.008;8.390;2022-11-30T04:27:20;37.00;;;16.02;;
27127;SDS011;14660;49.008;8.390;2022-11-30T04:29:46;33.90;;;17.30;;
27127;SDS011;14660;49.008;8.390;2022-11-30T04:32:11;38.78;;;17.50;;
27127;SDS011;14660;49.008;8.390;2022-11-30T04:34:37;31.83;;;14.18;;
27127;SDS011;14660;49.008;8.390;2022-11-30T04:37:02;26.05;;;14.40;;
27127;SDS011;14660;49.008;8.390;2022-11-30T04:39:28;27.75;;;13.32;;
27127;SDS011;14660;49.008;8.390;2022-11-30T04:41:56;24.88;;;11.63;;
27127;SDS011;14660;49.008;8.390;2022-11-30T04:44:22;28.77;;;14.60;;
27127;SDS011;14660;49.008;8.390;2022-11-30T04:46:47;28.60;;;13.07;;
27127;SDS011;14660;49.008;8.390;2022-11-30T04:49:13;28.20;;;14.35;;
27127;SDS011;14660;49.008;8.390;2022-11-30T04:51:38;25.85;;;13.75;;
27127;SDS011;14660;49.008;8.390;2022-11-30T04:54:04;26.17;;;12.93;;
27127;SDS011;14660;49.008;8.390;2022-11-30T04:56:29;26.23;;;13.60;;
27127;SDS011;14660;49.008;8.390;2022-11-30T04:58:55;25.23;;;13.20;;
27127;SDS011;14660;49.008;8.390;2022-11-30T05:01:20;23.92;;;12.73;;
27127;SDS011;14660;49.008;8.390;2022-11-30T05:03:46;25.55;;;13.40;;
27127;SDS011;14660;49.008;8.390;2022-11-30T05:06:18;29.02;;;13.10;;
27127;SDS011;14660;49.008;8.390;2022-11-30T05:08:44;29.73;;;15.80;;
27127;SDS011;14660;49.008;8.390;2022-11-30T05:11:10;34.03;;;14.52;;
27127;SDS011;14660;49.008;8.390;2022-11-30T05:13:35;24.27;;;13.45;;
27127;SDS011;14660;49.008;8.390;2022-11-30T05:16:01;25.58;;;12.85;;
27127;SDS011;14660;49.008;8.390;2022-11-30T05:18:27;23.52;;;12.85;;
27127;SDS011;14660;49.008;8.390;2022-11-30T05:20:53;27.23;;;14.35;;
27127;SDS011;14660;49.008;8.390;2022-11-30T05:23:19;28.08;;;14.63;;
27127;SDS011;14660;49.008;8.390;2022-11-30T05:25:46;27.25;;;14.57;;
27127;SDS011;14660;49.008;8.390;2022-11-30T05:28:12;28.48;;;13.95;;
27127;SDS011;14660;49.008;8.390;2022-11-30T05:30:38;25.63;;;13.85;;
27127;SDS011;14660;49.008;8.390;2022-11-30T05:33:05;26.15;;;15.25;;
27127;SDS011;14660;49.008;8.390;2022-11-30T05:35:30;21.20;;;13.18;;
27127;SDS011;14660;49.008;8.390;2022-11-30T05:37:56;22.58;;;12.88;;
27127;SDS011;14660;49.008;8.390;2022-11-30T05:40:21;25.17;;;14.65;;
27127;SDS011;14660;49.008;8.390;2022-11-30T05:42:53;28.65;;;15.00;;
27127;SDS011;14660;49.008;8.390;2022-11-30T05:45:19;26.33;;;14.68;;
27127;SDS011;14660;49.008;8.390;2022-11-30T05:47:45;26.27;;;15.38;;
27127;SDS011;14660;49.008;8.390;2022-11-30T05:50:10;28.58;;;13.77;;
27127;SDS011;14660;49.008;8.390;2022-11-30T05:52:36;25.52;;;14.07;;
27127;SDS011;14660;49.008;8.390;2022-11-30T05:55:01;29.33;;;14.32;;
27127;SDS011;14660;49.008;8.390;2022-11-30T05:57:27;23.77;;;14.18;;
27127;SDS011;14660;49.008;8.390;2022-11-30T05:59:53;23.55;;;13.50;;
27127;SDS011;14660;49.008;8.390;2022-11-30T06:02:18;26.27;;;14.68;;
27127;SDS011;14660;49.008;8.390;2022-11-30T06:04:44;24.92;;;13.80;;
27127;SDS011;14660;49.008;8.390;2022-11-30T06:07:09;24.38;;;14.10;;
27127;SDS011;14660;49.008;8.390;2022-11-30T06:09:36;25.42;;;13.40;;
27127;SDS011;14660;49.008;8.390;2022-11-30T06:12:02;23.50;;;13.18;;
27127;SDS011;14660;49.008;8.390;2022-11-30T06:14:28;27.08;;;14.75;;
27127;SDS011;14660;49.008;8.390;2022-11-30T06:16:54;32.25;;;15.07;;
27127;SDS011;14660;49.008;8.390;2022-11-30T06:19:19;24.33;;;13.05;;
27127;SDS011;14660;49.008;8.390;2022-11-30T06:21:45;25.63;;;14.02;;
27127;SDS011;14660;49.008;8.390;2022-11-30T06:24:10;20.30;;;12.05;;
27127;SDS011;14660;49.008;8.390;2022-11-30T06:26:36;23.00;;;13.80;;
27127;SDS011;14660;49.008;8.390;2022-11-30T06:29:02;18.77;;;12.15;;
27127;SDS011;14660;49.008;8.390;2022-11-30T06:31:29;17.35;;;11.02;;
27127;SDS011;14660;49.008;8.390;2022-11-30T06:33:56;15.80;;;10.20;;
27127;SDS011;14660;49.008;8.390;2022-11-30T06:36:22;17.27;;;10.20;;
27127;SDS011;14660;49.008;8.390;2022-11-30T06:38:55;17.40;;;10.25;;
27127;SDS011;14660;49.008;8.390;2022-11-30T06:41:20;19.02;;;11.23;;
27127;SDS011;14660;49.008;8.390;2022-11-30T06:43:46;17.75;;;11.15;;
27127;SDS011;14660;49.008;8.390;2022-11-30T06:46:12;16.67;;;10.05;;
27127;SDS011;14660;49.008;8.390;2022-11-30T06:48:38;21.10;;;11.50;;
27127;SDS011;14660;49.008;8.390;2022-11-30T06:51:04;18.77;;;12.38;;
27127;SDS011;14660;49.008;8.390;2022-11-30T06:53:34;19.95;;;11.95;;
27127;SDS011;14660;49.008;8.390;2022-11-30T06:56:03;20.83;;;12.15;;
27127;SDS011;14660;49.008;8.390;2022-11-30T06:58:30;19.42;;;12.00;;
27127;SDS011;14660;49.008;8.390;2022-11-30T07:00:55;19.23;;;11.07;;
27127;SDS011;14660;49.008;8.390;2022-11-30T07:03:21;20.20;;;13.07;;
27127;SDS011;14660;49.008;8.390;2022-11-30T07:05:46;20.67;;;11.95;;
27127;SDS011;14660;49.008;8.390;2022-11-30T07:08:13;20.98;;;11.80;;
27127;SDS011;14660;49.008;8.390;2022-11-30T07:10:43;24.25;;;11.93;;
27127;SDS011;14660;49.008;8.390;2022-11-30T07:13:10;20.17;;;12.05;;
27127;SDS011;14660;49.008;8.390;2022-11-30T07:15:36;19.92;;;11.25;;
27127;SDS011;14660;49.008;8.390;2022-11-30T07:18:03;24.20;;;13.25;;
27127;SDS011;14660;49.008;8.390;2022-11-30T07:20:28;19.95;;;11.38;;
27127;SDS011;14660;49.008;8.390;2022-11-30T07:22:54;15.82;;;10.60;;
27127;SDS011;14660;49.008;8.390;2022-11-30T07:25:20;18.67;;;11.10;;
27127;SDS011;14660;49.008;8.390;2022-11-30T07:28:04;20.67;;;11.57;;
27127;SDS011;14660;49.008;8.390;2022-11-30T07:30:32;22.00;;;11.90;;
27127;SDS011;14660;49.008;8.390;2022-11-30T07:32:58;21.48;;;11.82;;
27127;SDS011;14660;49.008;8.390;2022-11-30T07:35:24;18.02;;;10.38;;
27127;SDS011;14660;49.008;8.390;2022-11-30T07:37:50;17.17;;;10.15;;
27127;SDS011;14660;49.008;8.390;2022-11-30T07:40:15;18.33;;;10.93;;
27127;SDS011;14660;49.008;8.390;2022-11-30T07:42:41;25.10;;;11.85;;
27127;SDS011;14660;49.008;8.390;2022-11-30T07:45:07;18.23;;;10.95;;
27127;SDS011;14660;49.008;8.390;2022-11-30T07:47:33;20.05;;;11.35;;
27127;SDS011;14660;49.008;8.390;2022-11-30T07:49:58;24.92;;;12.40;;
27127;SDS011;14660;49.008;8.390;2022-11-30T07:52:24;23.02;;;10.90;;
27127;SDS011;14660;49.008;8.390;2022-11-30T07:54:49;17.52;;;10.82;;
27127;SDS011;14660;49.008;8.390;2022-11-30T07:57:15;18.48;;;11.43;;
27127;SDS011;14660;49.008;8.390;2022-11-30T07:59:40;20.98;;;12.25;;
27127;SDS011;14660;49.008;8.390;2022-11-30T08:02:06;19.40;;;11.50;;
27127;SDS011;14660;49.008;8.390;2022-11-30T08:04:34;20.50;;;11.85;;
27127;SDS011;14660;49.008;8.390;2022-11-30T08:07:00;18.83;;;11.65;;
27127;SDS011;14660;49.008;8.390;2022-11-30T08:09:25;21.58;;;11.63;;
27127;SDS011;14660;49.008;8.390;2022-11-30T08:11:51;19.42;;;12.93;;
27127;SDS011;14660;49.008;8.390;2022-11-30T08:14:16;22.90;;;12.60;;
27127;SDS011;14660;49.008;8.390;2022-11-30T08:16:42;23.77;;;12.50;;
27127;SDS011;14660;49.008;8.390;2022-11-30T08:19:08;19.38;;;10.77;;
27127;SDS011;14660;49.008;8.390;2022-11-30T08:21:34;21.48;;;11.82;;
27127;SDS011;14660;49.008;8.390;2022-11-30T08:24:01;20.90;;;12.10;;
27127;SDS011;14660;49.008;8.390;2022-11-30T08:26:28;21.10;;;11.68;;
27127;SDS011;14660;49.008;8.390;2022-11-30T08:28:56;22.67;;;11.63;;
27127;SDS011;14660;49.008;8.390;2022-11-30T08:34:01;24.58;;;13.10;;
27127;SDS011;14660;49.008;8.390;2022-11-30T08:36:29;21.57;;;11.60;;
27127;SDS011;14660;49.008;8.390;2022-11-30T08:38:56;18.45;;;12.05;;
27127;SDS011;14660;49.008;8.390;2022-11-30T08:41:22;21.70;;;11.88;;
27127;SDS011;14660;49.008;8.390;2022-11-30T08:43:48;23.00;;;13.15;;
27127;SDS011;14660;49.008;8.390;2022-11-30T08:46:15;24.95;;;12.32;;
27127;SDS011;14660;49.008;8.390;2022-11-30T08:48:42;23.88;;;12.70;;
27127;SDS011;14660;49.008;8.390;2022-11-30T08:51:09;22.48;;;12.73;;
27127;SDS011;14660;49.008;8.390;2022-11-30T08:53:36;23.05;;;12.82;;
27127;SDS011;14660;49.008;8.390;2022-11-30T08:56:03;21.02;;;12.15;;
27127;SDS011;14660;49.008;8.390;2022-11-30T08:58:31;21.83;;;12.27;;
27127;SDS011;14660;49.008;8.390;2022-11-30T09:01:05;20.15;;;11.52;;
27127;SDS011;14660;49.008;8.390;2022-11-30T09:03:39;20.13;;;9.70;;
27127;SDS011;14660;49.008;8.390;2022-11-30T09:06:07;20.17;;;12.25;;
27127;SDS011;14660;49.008;8.390;2022-11-30T09:08:41;16.95;;;10.48;;
27127;SDS011;14660;49.008;8.390;2022-11-30T09:11:08;22.30;;;11.15;;
27127;SDS011;14660;49.008;8.390;2022-11-30T09:13:36;17.83;;;10.82;;
27127;SDS011;14660;49.008;8.390;2022-11-30T09:16:01;20.42;;;11.18;;
27127;SDS011;14660;49.008;8.390;2022-11-30T09:18:28;20.55;;;11.52;;
27127;SDS011;14660;49.008;8.390;2022-11-30T09:20:57;21.70;;;11.30;;
27127;SDS011;14660;49.008;8.390;2022-11-30T09:23:24;16.40;;;9.95;;
27127;SDS011;14660;49.008;8.390;2022-11-30T09:25:57;21.88;;;11.10;;
27127;SDS011;14660;49.008;8.390;2022-11-30T09:28:24;19.85;;;10.90;;
27127;SDS011;14660;49.008;8.390;2022-11-30T09:30:51;20.50;;;11.15;;
27127;SDS011;14660;49.008;8.390;2022-11-30T09:33:17;21.58;;;11.07;;
27127;SDS011;14660;49.008;8.390;2022-11-30T09:35:43;19.33;;;11.68;;
27127;SDS011;14660;49.008;8.390;2022-11-30T09:38:17;18.88;;;10.65;;
27127;SDS011;14660;49.008;8.390;2022-11-30T09:40:43;19.50;;;11.52;;
27127;SDS011;14660;49.008;8.390;2022-11-30T09:43:24;21.25;;;11.43;;
27127;SDS011;14660;49.008;8.390;2022-11-30T09:46:14;20.65;;;11.18;;
27127;SDS011;14660;49.008;8.390;2022-11-30T09:51:12;22.38;;;11.50;;
27127;SDS011;14660;49.008;8.390;2022-11-30T09:53:44;17.67;;;11.05;;
27127;SDS011;14660;49.008;8.390;2022-11-30T09:56:20;21.85;;;12.60;;
27127;SDS011;14660;49.008;8.390;2022-11-30T09:59:01;21.30;;;11.70;;
27127;SDS011;14660;49.008;8.390;2022-11-30T10:01:35;20.10;;;11.98;;
27127;SDS011;14660;49.008;8.390;2022-11-30T10:04:01;16.85;;;10.82;;
27127;SDS011;14660;49.008;8.390;2022-11-30T10:06:40;20.58;;;10.98;;
27127;SDS011;14660;49.008;8.390;2022-11-30T10:12:03;18.67;;;10.98;;
27127;SDS011;14660;49.008;8.390;2022-11-30T10:14:46;20.70;;;11.30;;
27127;SDS011;14660;49.008;8.390;2022-11-30T10:17:36;17.42;;;11.02;;
27127;SDS011;14660;49.008;8.390;2022-11-30T10:32:57;18.65;;;10.85;;
27127;SDS011;14660;49.008;8.390;2022-11-30T10:35:33;16.40;;;11.68;;
27127;SDS011;14660;49.008;8.390;2022-11-30T10:38:10;17.05;;;10.05;;
27127;SDS011;14660;49.008;8.390;2022-11-30T10:40:54;19.77;;;10.98;;
27127;SDS011;14660;49.008;8.390;2022-11-30T10:45:54;19.70;;;10.25;;
27127;SDS011;14660;49.008;8.390;2022-11-30T10:50:56;18.27;;;10.70;;
27127;SDS011;14660;49.008;8.390;2022-11-30T10:53:23;18.85;;;11.02;;
27127;SDS011;14660;49.008;8.390;2022-11-30T10:55:57;22.35;;;12.57;;
27127;SDS011;14660;49.008;8.390;2022-11-30T10:58:28;19.90;;;11.23;;
27127;SDS011;14660;49.008;8.390;2022-11-30T11:00:59;19.88;;;11.10;;
27127;SDS011;14660;49.008;8.390;2022-11-30T11:03:34;20.58;;;11.18;;
27127;SDS011;14660;49.008;8.390;2022-11-30T11:06:14;18.05;;;9.95;;
27127;SDS011;14660;49.008;8.390;2022-11-30T11:08:48;19.20;;;10.68;;
27127;SDS011;14660;49.008;8.390;2022-11-30T11:14:38;15.95;;;9.52;;
27127;SDS011;14660;49.008;8.390;2022-11-30T11:17:05;16.45;;;9.50;;
27127;SDS011;14660;49.008;8.390;2022-11-30T11:19:47;18.75;;;10.40;;
27127;SDS011;14660;49.008;8.390;2022-11-30T11:22:24;16.60;;;10.13;;
27127;SDS011;14660;49.008;8.390;2022-11-30T11:24:52;16.67;;;10.52;;
27127;SDS011;14660;49.008;8.390;2022-11-30T11:27:37;21.55;;;11.35;;
27127;SDS011;14660;49.008;8.390;2022-11-30T11:35:37;18.70;;;11.65;;
27127;SDS011;14660;49.008;8.390;2022-11-30T11:38:25;18.80;;;11.43;;
27127;SDS011;14660;49.008;8.390;2022-11-30T11:41:10;24.73;;;12.18;;
27127;SDS011;14660;49.008;8.390;2022-11-30T11:46:36;20.33;;;12.25;;
27127;SDS011;14660;49.008;8.390;2022-11-30T11:49:31;21.42;;;13.05;;
27127;SDS011;14660;49.008;8.390;2022-11-30T11:52:00;23.40;;;12.90;;
27127;SDS011;14660;49.008;8.390;2022-11-30T11:59:46;18.00;;;9.95;;
27127;SDS011;14660;49.008;8.390;2022-11-30T12:02:25;19.63;;;11.35;;
27127;SDS011;14660;49.008;8.390;2022-11-30T12:04:59;21.02;;;11.88;;
27127;SDS011;14660;49.008;8.390;2022-11-30T12:10:42;19.40;;;11.45;;
27127;SDS011;14660;49.008;8.390;2022-11-30T12:13:16;18.23;;;10.93;;
27127;SDS011;14660;49.008;8.390;2022-11-30T12:22:05;18.60;;;10.00;;
27127;SDS011;14660;49.008;8.390;2022-11-30T12:24:16;16.58;;;10.18;;
27127;SDS011;14660;49.008;8.390;2022-11-30T12:26:56;17.58;;;11.85;;
27127;SDS011;14660;49.008;8.390;2022-11-30T12:32:24;19.65;;;12.23;;
27127;SDS011;14660;49.008;8.390;2022-11-30T12:35:26;17.70;;;11.10;;
27127;SDS011;14660;49.008;8.390;2022-11-30T12:49:22;19.52;;;12.25;;
27127;SDS011;14660;49.008;8.390;2022-11-30T12:57:44;22.10;;;11.10;;
27127;SDS011;14660;49.008;8.390;2022-11-30T13:00:19;26.88;;;14.40;;
27127;SDS011;14660;49.008;8.390;2022-11-30T13:05:45;20.42;;;11.45;;
27127;SDS011;14660;49.008;8.390;2022-11-30T13:10:58;21.88;;;12.32;;
27127;SDS011;14660;49.008;8.390;2022-11-30T13:13:31;20.83;;;13.73;;
27127;SDS011;14660;49.008;8.390;2022-11-30T13:15:59;21.70;;;12.93;;
27127;SDS011;14660;49.008;8.390;2022-11-30T13:18:28;17.98;;;12.02;;
27127;SDS011;14660;49.008;8.390;2022-11-30T13:27:13;20.85;;;12.45;;
27127;SDS011;14660;49.008;8.390;2022-11-30T13:30:41;24.60;;;13.48;;
27127;SDS011;14660;49.008;8.390;2022-11-30T13:32:44;23.63;;;12.68;;
27127;SDS011;14660;49.008;8.390;2022-11-30T13:35:51;20.10;;;12.07;;
27127;SDS011;14660;49.008;8.390;2022-11-30T13:38:15;22.42;;;12.63;;
27127;SDS011;14660;49.008;8.390;2022-11-30T13:41:03;19.73;;;11.45;;
27127;SDS011;14660;49.008;8.390;2022-11-30T13:43:44;19.13;;;11.80;;
27127;SDS011;14660;49.008;8.390;2022-11-30T13:46:21;20.87;;;12.57;;
27127;SDS011;14660;49.008;8.390;2022-11-30T13:49:07;20.38;;;11.80;;
27127;SDS011;14660;49.008;8.390;2022-11-30T13:51:43;21.92;;;12.35;;
27127;SDS011;14660;49.008;8.390;2022-11-30T13:59:46;23.10;;;13.15;;
27127;SDS011;14660;49.008;8.390;2022-11-30T14:18:44;23.13;;;13.65;;
27127;SDS011;14660;49.008;8.390;2022-11-30T14:26:12;31.25;;;16.08;;
27127;SDS011;14660;49.008;8.390;2022-11-30T14:28:42;33.33;;;18.63;;
27127;SDS011;14660;49.008;8.390;2022-11-30T14:31:19;33.40;;;17.00;;
27127;SDS011;14660;49.008;8.390;2022-11-30T14:33:52;29.73;;;16.38;;
27127;SDS011;14660;49.008;8.390;2022-11-30T14:36:34;23.95;;;13.50;;
27127;SDS011;14660;49.008;8.390;2022-11-30T14:39:20;29.00;;;16.02;;
27127;SDS011;14660;49.008;8.390;2022-11-30T14:41:51;31.40;;;16.23;;
27127;SDS011;14660;49.008;8.390;2022-11-30T14:44:17;29.73;;;17.30;;
27127;SDS011;14660;49.008;8.390;2022-11-30T14:46:43;25.15;;;14.02;;
27127;SDS011;14660;49.008;8.390;2022-11-30T14:49:14;25.02;;;15.25;;
27127;SDS011;14660;49.008;8.390;2022-11-30T14:51:46;25.58;;;16.10;;
27127;SDS011;14660;49.008;8.390;2022-11-30T14:57:17;18.80;;;11.25;;
27127;SDS011;14660;49.008;8.390;2022-11-30T15:00:00;21.98;;;13.23;;
27127;SDS011;14660;49.008;8.390;2022-11-30T15:02:29;21.13;;;12.77;;
27127;SDS011;14660;49.008;8.390;2022-11-30T15:05:01;18.35;;;11.93;;
27127;SDS011;14660;49.008;8.390;2022-11-30T15:07:32;21.23;;;12.68;;
27127;SDS011;14660;49.008;8.390;2022-11-30T15:10:03;21.77;;;13.10;;
27127;SDS011;14660;49.008;8.390;2022-11-30T15:12:33;20.92;;;12.32;;
27127;SDS011;14660;49.008;8.390;2022-11-30T15:17:47;22.02;;;12.48;;
27127;SDS011;14660;49.008;8.390;2022-11-30T15:23:30;22.92;;;12.60;;
27127;SDS011;14660;49.008;8.390;2022-11-30T15:25:59;23.40;;;13.48;;
27127;SDS011;14660;49.008;8.390;2022-11-30T15:28:36;25.00;;;14.20;;
27127;SDS011;14660;49.008;8.390;2022-11-30T15:31:06;22.98;;;14.38;;
27127;SDS011;14660;49.008;8.390;2022-11-30T15:33:55;25.08;;;13.68;;
27127;SDS011;14660;49.008;8.390;2022-11-30T15:36:20;31.60;;;14.38;;
27127;SDS011;14660;49.008;8.390;2022-11-30T15:38:46;26.55;;;13.82;;
27127;SDS011;14660;49.008;8.390;2022-11-30T15:41:19;23.90;;;14.77;;
27127;SDS011;14660;49.008;8.390;2022-11-30T15:43:55;24.40;;;13.23;;
27127;SDS011;14660;49.008;8.390;2022-11-30T15:46:34;23.23;;;13.68;;
27127;SDS011;14660;49.008;8.390;2022-11-30T15:51:37;36.70;;;19.67;;
27127;SDS011;14660;49.008;8.390;2022-11-30T15:54:06;30.40;;;16.40;;
27127;SDS011;14660;49.008;8.390;2022-11-30T15:56:32;35.10;;;18.42;;
27127;SDS011;14660;49.008;8.390;2022-11-30T15:59:20;39.35;;;20.38;;
27127;SDS011;14660;49.008;8.390;2022-11-30T16:07:28;42.92;;;24.20;;
27127;SDS011;14660;49.008;8.390;2022-11-30T16:12:48;28.80;;;16.70;;
27127;SDS011;14660;49.008;8.390;2022-11-30T16:15:16;35.13;;;17.58;;
27127;SDS011;14660;49.008;8.390;2022-11-30T16:17:47;33.00;;;17.05;;
27127;SDS011;14660;49.008;8.390;2022-11-30T16:20:15;32.97;;;17.17;;
27127;SDS011;14660;49.008;8.390;2022-11-30T16:22:41;39.08;;;19.75;;
27127;SDS011;14660;49.008;8.390;2022-11-30T16:25:12;26.98;;;16.75;;
27127;SDS011;14660;49.008;8.390;2022-11-30T16:27:39;33.10;;;19.27;;
27127;SDS011;14660;49.008;8.390;2022-11-30T16:30:05;39.03;;;19.63;;
27127;SDS011;14660;49.008;8.390;2022-11-30T16:32:33;32.15;;;18.13;;
27127;SDS011;14660;49.008;8.390;2022-11-30T16:34:58;40.88;;;18.90;;
27127;SDS011;14660;49.008;8.390;2022-11-30T16:37:25;27.35;;;16.15;;
27127;SDS011;14660;49.008;8.390;2022-11-30T16:39:52;26.42;;;14.02;;
27127;SDS011;14660;49.008;8.390;2022-11-30T16:42:19;28.38;;;15.85;;
27127;SDS011;14660;49.008;8.390;2022-11-30T16:44:52;29.27;;;15.13;;
27127;SDS011;14660;49.008;8.390;2022-11-30T16:49:45;38.13;;;18.73;;
27127;SDS011;14660;49.008;8.390;2022-11-30T16:52:14;33.47;;;19.08;;
27127;SDS011;14660;49.008;8.390;2022-11-30T16:54:41;35.40;;;19.23;;
27127;SDS011;14660;49.008;8.390;2022-11-30T16:57:14;26.15;;;15.23;;
27127;SDS011;14660;49.008;8.390;2022-11-30T16:59:40;28.35;;;16.38;;
27127;SDS011;14660;49.008;8.390;2022-11-30T17:02:09;31.42;;;17.13;;
27127;SDS011;14660;49.008;8.390;2022-11-30T17:04:43;30.38;;;16.40;;
27127;SDS011;14660;49.008;8.390;2022-11-30T17:07:09;32.00;;;18.20;;
27127;SDS011;14660;49.008;8.390;2022-11-30T17:09:36;39.10;;;20.52;;
27127;SDS011;14660;49.008;8.390;2022-11-30T17:12:03;32.42;;;15.70;;